Time;durP1;ratioP1;P1;durP2;ratioP2;P2;SDS_P1;SDS_P2;PMS_P1;PMS_P2;Temp;Humidity;BMP_temperature;BMP_pressure;BME280_temperature;BME280_humidity;BME280_pressure;Samples;Min_cycle;Max_cycle;Signal;HPM_P1;HPM_P2
2021/03/22 00:01:15;;;;;;;12.50;3.77;;;4.20;99.90;;;;;;5088488;28;20485;-61
2021/03/22 00:03:42;;;;;;;8.27;3.50;;;4.20;99.90;;;;;;5077103;28;21084;-62
2021/03/22 00:06:12;;;;;;;8.27;3.90;;;4.20;99.90;;;;;;5076793;28;20469;-62
2021/03/22 00:08:39;;;;;;;14.30;3.70;;;4.30;99.90;;;;;;5076591;28;20422;-64
2021/03/22 00:11:07;;;;;;;14.50;2.90;;;4.30;99.90;;;;;;5076351;28;20521;-62
2021/03/22 00:13:35;;;;;;;17.40;3.70;;;4.30;99.90;;;;;;5058592;28;20452;-62
2021/03/22 00:16:06;;;;;;;10.43;4.60;;;4.30;99.90;;;;;;5075039;28;20481;-62
2021/03/22 00:18:36;;;;;;;17.63;4.10;;;4.20;99.90;;;;;;5058563;28;20524;-62
2021/03/22 00:21:06;;;;;;;15.23;4.73;;;4.10;99.90;;;;;;5076134;28;20429;-62
2021/03/22 00:23:35;;;;;;;7.97;2.90;;;4.10;99.90;;;;;;5076085;28;20460;-62
2021/03/22 00:26:03;;;;;;;11.47;3.80;;;4.10;99.90;;;;;;5076181;28;20960;-62
2021/03/22 00:28:31;;;;;;;12.13;3.87;;;4.10;99.90;;;;;;5075793;28;20433;-64
2021/03/22 00:30:58;;;;;;;12.97;4.60;;;4.00;99.90;;;;;;5075066;28;20519;-63
2021/03/22 00:33:25;;;;;;;13.97;3.93;;;4.10;99.90;;;;;;5075969;28;20521;-65
2021/03/22 00:38:46;;;;;;;11.83;5.80;;;4.00;99.90;;;;;;5076040;28;20426;-63
2021/03/22 00:41:13;;;;;;;13.30;4.17;;;3.90;99.90;;;;;;5076110;28;20854;-63
2021/03/22 00:43:41;;;;;;;13.63;3.50;;;3.90;99.90;;;;;;5076528;28;20929;-62
2021/03/22 00:46:09;;;;;;;8.17;4.17;;;3.80;99.90;;;;;;5074366;28;21022;-62
2021/03/22 00:48:39;;;;;;;12.80;4.73;;;3.70;99.90;;;;;;5075654;28;20442;-63
2021/03/22 00:51:07;;;;;;;8.00;3.23;;;3.70;99.90;;;;;;5075669;28;20425;-62
2021/03/22 00:54:02;;;;;;;9.70;3.70;;;3.60;99.90;;;;;;5075474;28;20446;-63
2021/03/22 00:56:31;;;;;;;7.47;3.63;;;3.60;99.90;;;;;;5075012;28;20560;-63
2021/03/22 00:58:59;;;;;;;8.87;3.00;;;3.60;99.90;;;;;;5094706;28;20727;-65
2021/03/22 01:01:27;;;;;;;6.83;2.70;;;3.50;99.90;;;;;;5094909;28;20975;-62
2021/03/22 01:03:54;;;;;;;10.23;3.17;;;3.50;99.90;;;;;;5095000;28;20505;-62
2021/03/22 01:06:22;;;;;;;8.83;2.37;;;3.50;99.90;;;;;;5095223;28;20470;-62
2021/03/22 01:08:50;;;;;;;11.00;3.10;;;3.50;99.90;;;;;;5095467;28;20436;-62
2021/03/22 01:11:21;;;;;;;10.00;4.10;;;3.40;99.90;;;;;;5095553;28;20944;-62
2021/03/22 01:13:54;;;;;;;11.40;2.97;;;3.30;99.90;;;;;;5095997;28;20950;-62
2021/03/22 01:16:23;;;;;;;5.57;3.20;;;3.30;99.90;;;;;;5103793;28;20487;-62
2021/03/22 01:18:53;;;;;;;8.53;2.77;;;3.30;99.90;;;;;;5116083;28;20475;-62
2021/03/22 01:21:25;;;;;;;7.07;3.30;;;3.30;99.90;;;;;;5115313;28;20492;-63
2021/03/22 01:23:53;;;;;;;13.40;5.10;;;3.30;99.90;;;;;;5115726;28;20496;-63
2021/03/22 01:26:24;;;;;;;12.40;3.80;;;3.30;99.90;;;;;;5115587;28;20413;-62
2021/03/22 01:28:53;;;;;;;10.27;3.10;;;3.30;99.90;;;;;;5115472;28;20428;-62
2021/03/22 01:31:20;;;;;;;18.77;3.57;;;3.40;99.90;;;;;;5114554;28;20475;-62
2021/03/22 01:33:51;;;;;;;9.03;4.37;;;3.50;99.90;;;;;;5115431;28;20435;-64
2021/03/22 01:36:25;;;;;;;12.90;3.80;;;3.50;99.90;;;;;;5116049;28;20468;-64
2021/03/22 01:38:55;;;;;;;5.93;2.40;;;3.50;99.90;;;;;;5115728;28;20459;-62
2021/03/22 01:41:44;;;;;;;6.27;3.00;;;3.60;99.90;;;;;;5115893;28;20982;-62
2021/03/22 01:44:17;;;;;;;12.17;4.07;;;3.60;99.90;;;;;;5115365;28;20514;-65
2021/03/22 01:46:50;;;;;;;10.43;3.03;;;3.60;99.90;;;;;;5114530;28;20820;-62
2021/03/22 01:49:18;;;;;;;7.97;3.83;;;3.60;99.90;;;;;;5115762;28;20421;-62
2021/03/22 01:51:47;;;;;;;12.80;3.10;;;3.60;99.90;;;;;;5115123;28;20931;-63
2021/03/22 01:54:15;;;;;;;14.20;4.37;;;3.60;99.90;;;;;;5114469;28;20788;-62
2021/03/22 01:56:50;;;;;;;14.77;3.40;;;3.50;99.90;;;;;;5115260;28;20966;-62
2021/03/22 01:59:26;;;;;;;7.20;2.77;;;3.50;99.90;;;;;;5115653;28;20428;-62
2021/03/22 02:01:59;;;;;;;12.63;3.77;;;3.40;99.90;;;;;;5079479;28;20483;-61
2021/03/22 02:04:28;;;;;;;17.73;3.40;;;3.50;99.90;;;;;;5115498;28;20431;-64
2021/03/22 02:06:57;;;;;;;15.60;3.60;;;3.40;99.90;;;;;;5115509;28;20446;-62
2021/03/22 02:09:24;;;;;;;13.30;2.50;;;3.40;99.90;;;;;;5117420;28;20445;-61
2021/03/22 02:11:53;;;;;;;10.07;3.03;;;3.30;99.90;;;;;;5119617;28;20920;-61
2021/03/22 02:14:21;;;;;;;14.73;3.50;;;3.20;99.90;;;;;;5119606;28;20504;-61
2021/03/22 02:17:13;;;;;;;4.67;3.27;;;3.10;99.90;;;;;;5101963;28;20963;-62
2021/03/22 02:20:28;;;;;;;9.80;2.97;;;3.00;99.90;;;;;;5099171;28;20961;-61
2021/03/22 02:23:23;;;;;;;6.53;1.90;;;3.00;99.90;;;;;;5099489;28;20443;-63
2021/03/22 02:25:58;;;;;;;14.30;4.70;;;2.90;99.90;;;;;;5099487;28;20436;-61
2021/03/22 02:29:03;;;;;;;5.43;3.17;;;2.90;99.90;;;;;;5098891;28;20947;-64
2021/03/22 02:32:07;;;;;;;10.80;3.50;;;2.80;99.90;;;;;;5097583;28;21051;-61
2021/03/22 02:34:43;;;;;;;9.80;3.03;;;2.80;99.90;;;;;;5099328;28;20440;-61
2021/03/22 02:37:32;;;;;;;3.70;2.30;;;2.80;99.90;;;;;;5099071;28;20436;-62
2021/03/22 02:40:11;;;;;;;13.53;3.10;;;2.80;99.90;;;;;;5096605;28;20994;-61
2021/03/22 02:43:06;;;;;;;14.47;3.17;;;2.80;99.90;;;;;;5098972;28;20432;-61
2021/03/22 02:45:37;;;;;;;11.30;2.90;;;2.80;99.90;;;;;;5097943;28;20970;-61
2021/03/22 02:48:08;;;;;;;8.87;3.00;;;2.70;99.90;;;;;;5098808;28;20447;-61
2021/03/22 02:50:40;;;;;;;6.30;2.37;;;2.70;99.90;;;;;;5099234;28;20540;-62
2021/03/22 02:53:26;;;;;;;14.37;3.30;;;2.70;99.90;;;;;;5098481;28;20425;-61
2021/03/22 02:56:12;;;;;;;8.90;2.70;;;2.80;99.90;;;;;;5099549;28;20476;-61
2021/03/22 02:58:45;;;;;;;5.27;2.43;;;2.80;99.90;;;;;;5100073;28;20508;-63
2021/03/22 03:01:18;;;;;;;9.33;3.20;;;2.90;99.90;;;;;;5108625;28;20475;-64
2021/03/22 03:03:49;;;;;;;11.40;2.90;;;2.90;99.90;;;;;;5120933;28;20526;-62
2021/03/22 03:06:18;;;;;;;11.43;3.33;;;2.90;99.90;;;;;;5120578;28;20447;-62
2021/03/22 03:08:46;;;;;;;16.43;3.10;;;2.90;99.90;;;;;;5120064;28;20423;-61
2021/03/22 03:11:14;;;;;;;15.50;3.27;;;2.90;99.90;;;;;;5119845;28;20423;-61
2021/03/22 03:13:42;;;;;;;9.80;2.63;;;2.80;99.90;;;;;;5120555;28;20446;-61
2021/03/22 03:16:10;;;;;;;10.70;2.77;;;2.80;99.90;;;;;;5119109;28;20480;-61
2021/03/22 03:18:37;;;;;;;11.17;3.10;;;2.80;99.90;;;;;;5119327;28;20434;-62
2021/03/22 03:21:05;;;;;;;10.33;2.53;;;2.80;99.90;;;;;;5118606;28;20436;-64
2021/03/22 03:23:34;;;;;;;14.77;2.80;;;2.80;99.90;;;;;;5119382;28;20518;-62
2021/03/22 03:26:03;;;;;;;12.83;3.03;;;2.80;99.90;;;;;;5119615;28;20522;-61
2021/03/22 03:28:31;;;;;;;12.13;3.63;;;2.80;99.90;;;;;;5118764;28;20948;-63
2021/03/22 03:30:59;;;;;;;7.17;2.60;;;2.70;99.90;;;;;;5118760;28;20472;-61
2021/03/22 03:33:26;;;;;;;10.43;2.80;;;2.70;99.90;;;;;;5131826;28;20411;-64
2021/03/22 03:36:19;;;;;;;3.93;2.30;;;2.70;99.90;;;;;;5135584;28;20451;-62
2021/03/22 03:38:48;;;;;;;12.67;2.97;;;2.70;99.90;;;;;;5136635;28;20525;-62
2021/03/22 03:41:15;;;;;;;7.80;2.80;;;2.60;99.90;;;;;;5136777;28;20503;-61
2021/03/22 03:43:43;;;;;;;12.33;3.50;;;2.50;99.90;;;;;;5132741;28;20444;-63
2021/03/22 03:46:10;;;;;;;9.40;2.57;;;2.40;99.90;;;;;;5132511;28;20588;-64
2021/03/22 03:48:38;;;;;;;6.17;2.97;;;2.30;99.90;;;;;;5129611;28;20416;-62
2021/03/22 03:51:06;;;;;;;12.13;3.37;;;2.20;99.90;;;;;;5119765;28;20468;-63
2021/03/22 03:53:33;;;;;;;7.07;3.30;;;2.10;99.90;;;;;;5118115;28;20439;-65
2021/03/22 03:56:03;;;;;;;11.93;4.10;;;2.00;99.90;;;;;;5118615;27;20468;-62
2021/03/22 03:58:30;;;;;;;8.77;4.40;;;2.00;99.90;;;;;;5117192;28;20434;-62
2021/03/22 04:00:58;;;;;;;11.03;4.07;;;2.00;99.90;;;;;;5116912;28;20501;-62
2021/03/22 04:03:29;;;;;;;12.20;2.90;;;2.10;99.90;;;;;;5118301;28;20530;-62
2021/03/22 04:06:02;;;;;;;8.53;2.50;;;2.00;99.90;;;;;;5117583;28;20432;-62
2021/03/22 04:08:32;;;;;;;9.07;3.30;;;2.00;99.90;;;;;;5117255;28;20420;-62
2021/03/22 04:11:00;;;;;;;6.53;2.50;;;1.90;99.90;;;;;;5117128;28;20949;-62
2021/03/22 04:13:30;;;;;;;9.23;3.67;;;1.80;99.90;;;;;;5117580;28;20424;-64
2021/03/22 04:15:58;;;;;;;9.30;3.60;;;1.80;99.90;;;;;;5115740;28;20522;-65
2021/03/22 04:18:36;;;;;;;9.23;3.27;;;1.70;99.90;;;;;;5116639;28;20427;-67
2021/03/22 04:21:05;;;;;;;7.07;4.03;;;1.60;99.90;;;;;;5117479;28;20447;-62
2021/03/22 04:23:34;;;;;;;13.87;3.87;;;1.60;99.90;;;;;;5117906;28;20431;-62
2021/03/22 04:26:04;;;;;;;11.47;3.30;;;1.60;99.90;;;;;;5117231;28;20783;-62
2021/03/22 04:28:32;;;;;;;17.23;3.43;;;1.60;99.90;;;;;;5117365;28;20865;-65
2021/03/22 04:31:00;;;;;;;6.10;3.10;;;1.50;99.90;;;;;;5116338;28;20978;-63
2021/03/22 04:33:27;;;;;;;8.43;3.40;;;1.60;99.90;;;;;;5115860;28;20439;-63
2021/03/22 04:36:21;;;;;;;14.93;2.83;;;1.60;99.90;;;;;;5116788;28;20524;-62
2021/03/22 04:38:49;;;;;;;16.73;4.87;;;1.60;99.90;;;;;;5117559;28;20449;-62
2021/03/22 04:41:17;;;;;;;11.50;4.03;;;1.60;99.90;;;;;;5118391;28;20443;-63
2021/03/22 04:43:45;;;;;;;9.67;3.70;;;1.50;99.90;;;;;;5124794;28;20439;-63
2021/03/22 04:46:13;;;;;;;13.90;3.10;;;1.50;99.90;;;;;;5123744;28;20469;-62
2021/03/22 04:48:59;;;;;;;15.60;3.20;;;1.80;99.90;;;;;;5122831;28;20454;-62
2021/03/22 04:51:31;;;;;;;10.80;4.50;;;1.80;99.90;;;;;;5120790;28;20448;-66
2021/03/22 04:53:59;;;;;;;12.30;2.80;;;1.80;99.90;;;;;;5121845;28;20424;-62
2021/03/22 04:56:27;;;;;;;13.90;2.77;;;2.00;99.90;;;;;;5120529;27;20479;-62
2021/03/22 04:58:56;;;;;;;6.53;2.50;;;2.00;99.90;;;;;;5117875;28;20446;-62
2021/03/22 05:01:23;;;;;;;13.47;4.13;;;2.00;99.90;;;;;;5115818;28;20497;-62
2021/03/22 05:03:51;;;;;;;7.40;2.67;;;2.10;99.90;;;;;;5116717;28;20763;-62
2021/03/22 05:06:19;;;;;;;7.80;4.43;;;2.10;99.90;;;;;;5116920;28;20445;-63
2021/03/22 05:08:47;;;;;;;21.93;4.10;;;2.00;99.90;;;;;;5116185;28;20469;-62
2021/03/22 05:11:17;;;;;;;20.00;3.17;;;2.00;99.90;;;;;;5116647;28;20456;-62
2021/03/22 05:13:45;;;;;;;11.33;3.70;;;2.00;99.90;;;;;;5116759;28;20448;-62
2021/03/22 05:16:14;;;;;;;10.30;3.37;;;1.90;99.90;;;;;;5115598;28;20537;-62
2021/03/22 05:18:42;;;;;;;4.30;2.93;;;1.80;99.90;;;;;;5116169;28;20523;-62
2021/03/22 05:21:12;;;;;;;12.17;2.90;;;1.90;99.90;;;;;;5116768;28;20436;-64
2021/03/22 05:24:06;;;;;;;4.83;2.50;;;1.90;99.90;;;;;;5116557;28;20505;-63
2021/03/22 05:26:34;;;;;;;10.80;3.10;;;1.80;99.90;;;;;;5116897;28;20530;-63
2021/03/22 05:29:01;;;;;;;8.33;3.23;;;1.80;99.90;;;;;;5116250;28;20433;-62
2021/03/22 05:31:32;;;;;;;9.97;3.47;;;1.90;99.90;;;;;;5110496;28;20473;-63
2021/03/22 05:34:01;;;;;;;20.27;3.13;;;1.90;99.90;;;;;;5116196;28;20454;-62
2021/03/22 05:36:29;;;;;;;6.33;2.57;;;1.90;99.90;;;;;;5115615;28;20463;-62
2021/03/22 05:38:58;;;;;;;13.53;2.87;;;2.00;99.90;;;;;;5116209;28;20420;-66
2021/03/22 05:41:30;;;;;;;7.47;2.70;;;2.10;99.90;;;;;;5116626;28;20451;-62
2021/03/22 05:44:08;;;;;;;13.43;2.90;;;2.20;99.90;;;;;;5115905;28;20460;-62
2021/03/22 05:46:51;;;;;;;11.37;3.80;;;2.40;99.90;;;;;;5115043;28;20490;-62
2021/03/22 05:49:47;;;;;;;8.50;3.87;;;2.50;99.90;;;;;;5115471;28;20426;-62
2021/03/22 05:52:32;;;;;;;10.53;3.63;;;2.60;99.90;;;;;;5111210;28;20446;-66
2021/03/22 05:55:39;;;;;;;26.67;4.60;;;2.70;99.90;;;;;;5117830;27;20481;-62
2021/03/22 05:58:54;;;;;;;9.83;3.57;;;2.70;99.90;;;;;;5099415;28;20443;-63
2021/03/22 06:01:33;;;;;;;6.60;3.97;;;2.70;99.90;;;;;;5087206;28;20463;-62
2021/03/22 06:04:12;;;;;;;7.03;3.33;;;2.70;99.90;;;;;;5115637;28;20796;-63
2021/03/22 06:06:44;;;;;;;12.97;3.00;;;2.70;99.90;;;;;;5115151;28;20443;-62
2021/03/22 06:09:23;;;;;;;12.80;3.17;;;2.70;99.90;;;;;;5114457;28;20799;-65
2021/03/22 06:11:57;;;;;;;9.63;2.87;;;2.70;99.90;;;;;;5114962;28;20431;-61
2021/03/22 06:14:44;;;;;;;11.73;7.20;;;2.80;99.90;;;;;;5114707;28;20455;-66
2021/03/22 06:17:27;;;;;;;8.03;4.13;;;2.90;99.90;;;;;;5096139;28;20923;-63
2021/03/22 06:20:34;;;;;;;8.00;3.20;;;3.10;99.90;;;;;;5097378;28;20478;-62
2021/03/22 06:23:05;;;;;;;11.37;2.70;;;3.00;99.90;;;;;;5114896;28;20494;-62
2021/03/22 06:25:35;;;;;;;9.47;3.50;;;3.00;99.90;;;;;;5114763;28;20446;-63
2021/03/22 06:28:19;;;;;;;7.77;3.17;;;3.20;99.90;;;;;;5098256;28;20961;-64
2021/03/22 06:30:57;;;;;;;10.33;4.60;;;3.20;99.90;;;;;;5114477;28;20494;-63
2021/03/22 06:33:29;;;;;;;11.03;4.17;;;3.40;99.90;;;;;;5116280;28;20496;-63
2021/03/22 06:36:27;;;;;;;7.77;2.90;;;3.50;99.90;;;;;;5098943;28;20998;-63
2021/03/22 06:38:56;;;;;;;16.80;3.70;;;3.60;99.90;;;;;;5117673;28;20852;-63
2021/03/22 06:41:34;;;;;;;12.63;3.97;;;3.80;99.90;;;;;;5115831;28;20479;-62
2021/03/22 06:44:04;;;;;;;8.67;2.77;;;3.70;99.90;;;;;;5116002;28;20408;-63
2021/03/22 06:46:32;;;;;;;16.30;6.67;;;3.60;99.90;;;;;;5095202;28;20504;-63
2021/03/22 06:49:02;;;;;;;17.83;4.03;;;3.70;99.90;;;;;;5113530;28;21016;-63
2021/03/22 06:51:33;;;;;;;7.80;3.60;;;3.90;99.90;;;;;;5116791;28;20447;-63
2021/03/22 06:54:01;;;;;;;6.43;2.60;;;3.90;99.90;;;;;;5116846;28;20831;-63
2021/03/22 06:56:33;;;;;;;8.17;3.30;;;4.00;99.90;;;;;;5133558;27;20509;-63
2021/03/22 06:59:13;;;;;;;6.37;2.80;;;3.90;99.90;;;;;;5142469;27;20439;-63
2021/03/22 07:01:43;;;;;;;9.63;2.80;;;3.90;99.90;;;;;;5140033;27;20539;-62
2021/03/22 07:04:29;;;;;;;14.23;3.07;;;3.90;99.90;;;;;;5140957;27;20443;-62
2021/03/22 07:07:12;;;;;;;11.60;2.80;;;3.90;99.90;;;;;;5140877;27;20438;-62
2021/03/22 07:09:43;;;;;;;6.70;3.03;;;4.00;99.90;;;;;;5138946;27;20427;-62
2021/03/22 07:12:30;;;;;;;12.63;3.60;;;4.10;99.90;;;;;;5140726;27;20458;-65
2021/03/22 07:15:20;;;;;;;11.30;5.07;;;3.90;99.90;;;;;;5141050;27;20755;-62
2021/03/22 07:18:05;;;;;;;7.03;3.23;;;3.80;99.90;;;;;;5140040;27;20945;-62
2021/03/22 07:21:03;;;;;;;6.63;3.00;;;3.90;99.90;;;;;;5140927;27;20445;-62
2021/03/22 07:24:08;;;;;;;6.53;3.30;;;3.70;99.90;;;;;;5141339;27;20454;-64
2021/03/22 07:26:46;;;;;;;8.23;2.57;;;3.80;99.90;;;;;;5139447;27;20483;-61
2021/03/22 07:29:32;;;;;;;9.40;2.83;;;4.00;99.90;;;;;;5140539;27;20427;-61
2021/03/22 07:32:13;;;;;;;12.93;3.63;;;4.10;99.90;;;;;;5138450;27;20478;-62
2021/03/22 07:34:52;;;;;;;4.80;3.20;;;4.30;99.90;;;;;;5140310;27;20426;-62
2021/03/22 07:37:31;;;;;;;8.10;1.93;;;4.40;99.90;;;;;;5139479;27;20465;-62
2021/03/22 07:40:03;;;;;;;16.17;2.80;;;4.40;99.90;;;;;;5140295;27;20448;-64
2021/03/22 07:42:42;;;;;;;4.63;2.40;;;4.40;99.90;;;;;;5139394;27;20427;-64
2021/03/22 07:45:36;;;;;;;6.23;2.20;;;4.50;99.90;;;;;;5140759;27;20427;-63
2021/03/22 07:48:32;;;;;;;7.67;2.03;;;4.40;99.90;;;;;;5140587;27;20461;-63
2021/03/22 07:51:31;;;;;;;9.70;2.97;;;4.50;99.90;;;;;;5126746;27;20634;-62
2021/03/22 07:54:09;;;;;;;9.53;3.93;;;4.60;99.90;;;;;;5116659;27;20434;-63
2021/03/22 07:56:51;;;;;;;9.53;2.80;;;4.20;99.90;;;;;;5141333;27;20564;-63
2021/03/22 07:59:27;;;;;;;15.13;3.03;;;4.10;99.90;;;;;;5151001;27;20461;-64
2021/03/22 08:02:03;;;;;;;4.80;2.70;;;4.10;99.90;;;;;;5155847;27;20446;-63
2021/03/22 08:04:47;;;;;;;7.70;3.60;;;4.10;99.90;;;;;;5158068;27;20426;-63
2021/03/22 08:07:39;;;;;;;8.73;2.60;;;4.20;99.90;;;;;;5158734;27;20411;-62
2021/03/22 08:10:31;;;;;;;9.70;2.57;;;4.10;99.90;;;;;;5158216;27;20455;-63
2021/03/22 08:13:12;;;;;;;8.47;2.33;;;4.00;99.90;;;;;;5158849;27;20429;-63
2021/03/22 08:15:47;;;;;;;3.77;2.83;;;4.10;99.90;;;;;;5157559;27;20484;-63
2021/03/22 08:18:28;;;;;;;12.17;3.23;;;4.20;99.90;;;;;;5158625;27;20458;-64
2021/03/22 08:21:03;;;;;;;6.20;2.70;;;4.30;99.90;;;;;;5158746;27;20452;-63
2021/03/22 08:24:04;;;;;;;3.90;2.77;;;4.20;99.90;;;;;;5157186;27;20457;-63
2021/03/22 08:26:36;;;;;;;9.70;3.43;;;4.40;99.90;;;;;;5158355;27;20439;-65
2021/03/22 08:29:15;;;;;;;12.67;3.07;;;4.40;99.90;;;;;;5158408;27;20434;-63
2021/03/22 08:31:54;;;;;;;4.53;2.37;;;4.50;99.90;;;;;;5157334;27;20470;-64
2021/03/22 08:34:29;;;;;;;4.67;2.53;;;4.50;99.90;;;;;;5140612;27;20481;-67
2021/03/22 08:37:09;;;;;;;6.97;2.53;;;4.30;99.90;;;;;;5140186;27;20470;-66
2021/03/22 08:39:41;;;;;;;17.57;2.87;;;4.20;99.90;;;;;;5157510;27;20427;-66
2021/03/22 08:42:16;;;;;;;13.33;4.50;;;4.40;99.90;;;;;;5157638;27;20434;-64
2021/03/22 08:44:53;;;;;;;12.30;6.17;;;4.60;99.90;;;;;;5157924;27;20513;-63
2021/03/22 08:47:37;;;;;;;10.07;2.93;;;4.80;99.90;;;;;;5156358;27;20434;-62
2021/03/22 08:50:08;;;;;;;6.70;3.27;;;4.80;99.90;;;;;;5157194;27;20457;-63
2021/03/22 08:52:40;;;;;;;18.23;4.70;;;4.90;99.90;;;;;;5157374;27;20635;-62
2021/03/22 08:55:12;;;;;;;8.43;2.80;;;5.10;99.90;;;;;;5155098;27;20432;-61
2021/03/22 08:57:53;;;;;;;8.43;2.77;;;5.10;99.90;;;;;;5136112;28;20451;-62
2021/03/22 09:00:28;;;;;;;5.67;2.37;;;5.00;99.90;;;;;;5135421;28;20426;-62
2021/03/22 09:03:02;;;;;;;6.87;2.60;;;5.40;99.90;;;;;;5136501;28;20450;-62
2021/03/22 09:05:32;;;;;;;5.30;2.80;;;5.40;99.90;;;;;;5136084;28;20446;-62
2021/03/22 09:08:22;;;;;;;11.20;2.97;;;5.60;99.90;;;;;;5137422;28;20454;-63
2021/03/22 09:10:54;;;;;;;5.83;2.50;;;5.80;99.90;;;;;;5135352;28;20442;-63
2021/03/22 09:13:44;;;;;;;7.00;2.50;;;6.10;99.30;;;;;;5134798;28;20501;-64
2021/03/22 09:16:43;;;;;;;6.33;2.63;;;6.00;99.30;;;;;;5134018;28;20474;-62
2021/03/22 09:19:41;;;;;;;6.93;2.50;;;6.00;98.70;;;;;;5136323;28;20459;-63
2021/03/22 09:22:50;;;;;;;8.13;2.53;;;6.40;98.00;;;;;;5136415;28;20437;-65
2021/03/22 09:25:50;;;;;;;4.20;2.53;;;6.10;97.90;;;;;;5137343;28;20429;-65
2021/03/22 09:28:59;;;;;;;10.47;2.17;;;6.30;97.30;;;;;;5136650;28;20415;-64
2021/03/22 09:31:45;;;;;;;4.93;2.30;;;6.20;97.30;;;;;;5136698;28;20627;-64
2021/03/22 09:34:43;;;;;;;5.00;2.23;;;6.90;96.80;;;;;;5137845;28;20417;-64
2021/03/22 09:37:47;;;;;;;8.47;2.83;;;7.10;95.80;;;;;;5137135;28;20442;-65
2021/03/22 09:40:56;;;;;;;5.37;2.77;;;6.40;96.20;;;;;;5137060;28;20441;-64
2021/03/22 09:43:29;;;;;;;4.97;2.70;;;6.20;96.90;;;;;;5137264;28;20466;-63
2021/03/22 09:46:24;;;;;;;3.20;2.23;;;6.00;97.60;;;;;;5135408;28;20507;-63
2021/03/22 09:49:24;;;;;;;9.47;3.37;;;6.20;97.20;;;;;;5136506;28;20412;-63
2021/03/22 09:52:23;;;;;;;5.03;1.90;;;6.50;96.90;;;;;;5135234;28;20482;-64
2021/03/22 09:54:50;;;;;;;12.60;2.70;;;6.50;97.10;;;;;;5101157;28;20416;-64
2021/03/22 09:57:43;;;;;;;4.43;2.33;;;6.70;97.40;;;;;;5137292;28;20471;-64
2021/03/22 10:00:52;;;;;;;4.57;1.70;;;6.60;96.60;;;;;;5136176;28;20414;-63
2021/03/22 10:03:48;;;;;;;4.80;2.20;;;6.70;96.70;;;;;;5135788;28;20459;-63
2021/03/22 10:06:46;;;;;;;6.90;2.60;;;6.60;96.80;;;;;;5133495;28;20441;-63
2021/03/22 10:09:19;;;;;;;8.10;2.03;;;6.70;96.90;;;;;;5135012;28;20419;-63
2021/03/22 10:11:49;;;;;;;6.37;2.57;;;6.10;97.80;;;;;;5136540;28;20428;-63
2021/03/22 10:14:28;;;;;;;6.43;2.27;;;6.10;97.90;;;;;;5136050;28;20487;-63
2021/03/22 10:16:57;;;;;;;3.80;2.30;;;5.90;98.00;;;;;;5135641;28;20540;-65
2021/03/22 10:19:28;;;;;;;6.97;3.37;;;6.30;97.50;;;;;;5136532;28;20440;-63
2021/03/22 10:22:01;;;;;;;6.63;2.07;;;6.00;97.60;;;;;;5135678;28;20418;-62
2021/03/22 10:24:37;;;;;;;4.27;1.83;;;5.80;97.70;;;;;;5117862;28;20413;-62
2021/03/22 10:27:22;;;;;;;4.93;1.80;;;5.90;98.20;;;;;;5136415;28;20407;-63
2021/03/22 10:29:50;;;;;;;8.97;1.97;;;6.20;97.80;;;;;;5119614;28;20402;-63
2021/03/22 10:32:23;;;;;;;8.93;3.00;;;6.70;96.90;;;;;;5102883;28;20456;-63
2021/03/22 10:34:53;;;;;;;4.37;2.70;;;6.60;96.80;;;;;;5099286;28;20420;-64
2021/03/22 10:37:25;;;;;;;2.60;1.87;;;6.80;97.70;;;;;;5100084;28;20532;-62
2021/03/22 10:39:59;;;;;;;6.47;2.07;;;6.80;96.30;;;;;;5099505;28;20431;-64
2021/03/22 10:42:39;;;;;;;4.37;1.53;;;6.90;96.70;;;;;;5081728;28;20420;-63
2021/03/22 10:45:34;;;;;;;5.40;2.80;;;7.10;96.30;;;;;;5098684;28;20432;-62
2021/03/22 10:48:25;;;;;;;12.00;3.10;;;7.10;96.20;;;;;;5118366;28;20438;-62
2021/03/22 10:51:02;;;;;;;6.40;2.30;;;6.60;96.40;;;;;;5119167;28;20468;-64
2021/03/22 10:53:32;;;;;;;9.63;2.10;;;6.20;96.80;;;;;;5119186;28;20407;-62
2021/03/22 10:56:19;;;;;;;3.60;2.50;;;6.00;97.30;;;;;;5126213;28;20551;-64
2021/03/22 10:58:46;;;;;;;7.10;2.93;;;5.80;97.50;;;;;;5139746;28;20444;-62
2021/03/22 11:01:17;;;;;;;3.20;2.90;;;5.60;97.60;;;;;;5139963;28;20454;-64
2021/03/22 11:03:48;;;;;;;10.20;2.20;;;5.70;97.90;;;;;;5139740;28;20440;-63
2021/03/22 11:06:31;;;;;;;5.10;2.00;;;5.90;97.60;;;;;;5123197;28;20425;-63
2021/03/22 11:09:04;;;;;;;4.73;2.57;;;6.00;97.50;;;;;;5122255;28;20426;-63
2021/03/22 11:11:32;;;;;;;7.30;2.80;;;5.70;97.60;;;;;;5140405;28;20444;-63
2021/03/22 11:14:03;;;;;;;4.60;1.77;;;5.60;98.30;;;;;;5137915;28;20432;-64
2021/03/22 11:16:33;;;;;;;6.47;2.90;;;5.70;98.30;;;;;;5139486;28;20443;-64
2021/03/22 11:19:29;;;;;;;6.07;2.33;;;5.80;97.80;;;;;;5139542;28;20464;-65
2021/03/22 11:22:01;;;;;;;4.33;2.60;;;5.90;97.70;;;;;;5140191;28;20445;-63
2021/03/22 11:24:40;;;;;;;5.07;1.97;;;6.50;97.50;;;;;;5139533;28;20464;-63
2021/03/22 11:27:10;;;;;;;7.97;2.47;;;6.70;96.80;;;;;;5139699;28;20440;-63
2021/03/22 11:29:51;;;;;;;4.83;2.27;;;6.50;97.00;;;;;;5139856;28;20475;-63
2021/03/22 11:32:22;;;;;;;3.47;1.97;;;6.20;97.00;;;;;;5137933;28;20500;-63
2021/03/22 11:34:50;;;;;;;7.87;3.20;;;6.60;96.90;;;;;;5140019;28;20941;-62
2021/03/22 11:37:21;;;;;;;10.87;2.80;;;6.10;96.90;;;;;;5137766;28;20451;-62
2021/03/22 11:39:58;;;;;;;12.43;2.80;;;6.40;97.10;;;;;;5137726;28;20377;-63
2021/03/22 11:42:29;;;;;;;3.00;2.43;;;6.80;96.20;;;;;;5137659;28;20426;-63
2021/03/22 11:44:57;;;;;;;3.77;2.37;;;6.70;96.10;;;;;;5138853;28;20430;-62
2021/03/22 11:47:37;;;;;;;4.57;2.20;;;7.00;95.90;;;;;;5136689;28;20538;-63
2021/03/22 11:50:31;;;;;;;7.07;2.67;;;7.20;95.40;;;;;;5138738;28;20405;-63
2021/03/22 11:53:14;;;;;;;7.40;2.27;;;7.20;95.10;;;;;;5121589;28;20413;-62
2021/03/22 11:55:45;;;;;;;5.63;2.40;;;7.10;95.30;;;;;;5137461;28;20800;-63
2021/03/22 11:58:46;;;;;;;5.00;3.10;;;7.10;95.00;;;;;;5137567;28;20470;-62
2021/03/22 12:01:20;;;;;;;5.23;2.13;;;7.00;94.80;;;;;;5062104;28;20448;-62
2021/03/22 12:04:18;;;;;;;2.77;1.80;;;7.00;94.90;;;;;;5075127;28;20415;-62
2021/03/22 12:07:02;;;;;;;4.87;2.60;;;6.60;95.20;;;;;;5074213;28;20499;-63
2021/03/22 12:09:31;;;;;;;3.20;2.17;;;6.10;96.00;;;;;;5074357;28;20436;-62
2021/03/22 12:12:05;;;;;;;9.50;2.30;;;6.00;96.40;;;;;;5072381;28;20553;-62
2021/03/22 12:14:33;;;;;;;5.43;2.70;;;6.10;96.40;;;;;;5073678;28;20464;-62
2021/03/22 12:17:05;;;;;;;4.80;2.13;;;6.10;96.90;;;;;;5072682;28;20233;-63
2021/03/22 12:19:38;;;;;;;6.27;2.60;;;6.10;96.80;;;;;;5056569;28;20452;-62
2021/03/22 12:22:06;;;;;;;2.63;1.80;;;6.30;96.60;;;;;;5072456;28;20443;-63
2021/03/22 12:24:37;;;;;;;3.10;1.60;;;6.60;96.30;;;;;;5069481;28;20842;-62
2021/03/22 12:27:10;;;;;;;5.13;2.13;;;6.70;96.10;;;;;;5069804;28;20428;-62
2021/03/22 12:29:38;;;;;;;7.00;1.83;;;6.50;96.50;;;;;;5068149;28;20410;-63
2021/03/22 12:32:07;;;;;;;6.47;2.20;;;6.50;96.30;;;;;;5087706;28;21002;-61
2021/03/22 12:34:35;;;;;;;5.30;2.47;;;6.60;96.60;;;;;;5117334;28;20812;-62
2021/03/22 12:37:03;;;;;;;5.50;2.30;;;6.60;96.60;;;;;;5115743;28;20443;-63
2021/03/22 12:39:33;;;;;;;4.93;2.30;;;6.80;95.90;;;;;;5137512;27;20795;-61
2021/03/22 12:42:05;;;;;;;3.60;2.30;;;6.80;95.70;;;;;;5138019;27;20428;-62
2021/03/22 12:44:34;;;;;;;6.87;2.13;;;6.40;95.50;;;;;;5137779;27;20412;-61
2021/03/22 12:47:04;;;;;;;3.13;1.83;;;6.50;95.60;;;;;;5118816;27;20477;-61
2021/03/22 12:49:31;;;;;;;2.93;1.93;;;6.50;95.50;;;;;;5138118;27;20906;-62
2021/03/22 12:51:59;;;;;;;5.23;1.63;;;6.70;95.60;;;;;;5139380;27;20403;-62
2021/03/22 12:54:27;;;;;;;5.60;1.80;;;6.70;95.40;;;;;;5137901;27;20411;-63
2021/03/22 12:56:56;;;;;;;4.70;1.50;;;6.90;95.10;;;;;;5137892;27;20461;-66
2021/03/22 12:59:36;;;;;;;3.33;1.40;;;7.40;94.80;;;;;;5138866;27;20422;-62
2021/03/22 13:02:13;;;;;;;5.13;2.13;;;7.50;94.00;;;;;;5137389;27;20549;-63
2021/03/22 13:05:13;;;;;;;2.40;1.70;;;7.50;93.90;;;;;;5138462;27;20397;-62
2021/03/22 13:07:41;;;;;;;4.40;2.70;;;7.90;94.20;;;;;;5138281;27;20465;-62
2021/03/22 13:10:10;;;;;;;7.28;3.10;;;7.50;93.50;;;;;;5138467;27;20404;-64
2021/03/22 13:12:39;;;;;;;4.50;2.20;;;7.80;93.80;;;;;;5137906;27;20212;-62
2021/03/22 13:15:14;;;;;;;3.77;1.90;;;7.80;93.40;;;;;;5138422;27;20504;-63
2021/03/22 13:17:43;;;;;;;6.47;2.30;;;7.50;93.60;;;;;;5137821;27;20444;-66
2021/03/22 13:20:35;;;;;;;2.73;2.00;;;7.10;93.70;;;;;;5138254;27;20420;-63
2021/03/22 13:23:03;;;;;;;3.93;2.53;;;7.10;94.30;;;;;;5137998;27;20842;-65
2021/03/22 13:25:56;;;;;;;3.23;2.70;;;6.90;94.60;;;;;;5138483;27;20420;-62
2021/03/22 13:28:26;;;;;;;5.23;2.70;;;6.80;95.00;;;;;;5138477;27;20408;-66
2021/03/22 13:30:56;;;;;;;7.67;2.57;;;6.70;95.20;;;;;;5137818;27;20458;-62
2021/03/22 13:33:28;;;;;;;4.23;2.40;;;6.80;95.00;;;;;;5140312;27;20500;-63
2021/03/22 13:38:48;;;;;;;9.80;7.00;;;6.40;95.20;;;;;;5144987;27;20454;-63
2021/03/22 13:41:29;;;;;;;3.63;2.47;;;6.70;95.40;;;;;;5147050;27;20412;-63
2021/03/22 13:43:57;;;;;;;3.03;2.20;;;6.60;95.40;;;;;;5143002;27;20514;-62
2021/03/22 13:46:26;;;;;;;5.53;2.10;;;6.60;95.60;;;;;;5142517;27;20478;-63